sensor_id;sensor_type;location;lat;lon;timestamp;temperature;humidity
25214;DHT22;13160;51.834;4.706;2023-11-19T00:01:04;14.10;99.90
25214;DHT22;13160;51.834;4.706;2023-11-19T00:03:33;14.10;99.90
25214;DHT22;13160;51.834;4.706;2023-11-19T00:06:02;14.10;99.90
25214;DHT22;13160;51.834;4.706;2023-11-19T00:08:31;14.10;99.90
25214;DHT22;13160;51.834;4.706;2023-11-19T00:10:59;14.10;99.90
25214;DHT22;13160;51.834;4.706;2023-11-19T00:13:28;14.10;99.90
25214;DHT22;13160;51.834;4.706;2023-11-19T00:15:56;14.10;99.90
25214;DHT22;13160;51.834;4.706;2023-11-19T00:18:27;14.10;99.90
25214;DHT22;13160;51.834;4.706;2023-11-19T00:20:56;14.10;99.90
25214;DHT22;13160;51.834;4.706;2023-11-19T00:23:24;14.10;99.90
25214;DHT22;13160;51.834;4.706;2023-11-19T00:25:52;14.10;99.90
25214;DHT22;13160;51.834;4.706;2023-11-19T00:28:21;14.10;99.90
25214;DHT22;13160;51.834;4.706;2023-11-19T00:30:51;14.10;99.90
25214;DHT22;13160;51.834;4.706;2023-11-19T00:33:20;14.10;99.90
25214;DHT22;13160;51.834;4.706;2023-11-19T00:35:49;14.10;99.90
25214;DHT22;13160;51.834;4.706;2023-11-19T00:38:18;14.10;99.90
25214;DHT22;13160;51.834;4.706;2023-11-19T00:40:46;14.10;99.90
25214;DHT22;13160;51.834;4.706;2023-11-19T00:43:15;14.10;99.90
25214;DHT22;13160;51.834;4.706;2023-11-19T00:45:43;14.10;99.90
25214;DHT22;13160;51.834;4.706;2023-11-19T00:48:11;14.10;99.90
25214;DHT22;13160;51.834;4.706;2023-11-19T00:50:40;14.10;99.90
25214;DHT22;13160;51.834;4.706;2023-11-19T00:53:12;14.10;99.90
25214;DHT22;13160;51.834;4.706;2023-11-19T00:55:40;14.10;99.90
25214;DHT22;13160;51.834;4.706;2023-11-19T00:58:13;14.10;99.90
25214;DHT22;13160;51.834;4.706;2023-11-19T01:00:41;14.10;99.90
25214;DHT22;13160;51.834;4.706;2023-11-19T01:03:10;14.00;99.90
25214;DHT22;13160;51.834;4.706;2023-11-19T01:05:38;14.00;99.90
25214;DHT22;13160;51.834;4.706;2023-11-19T01:08:07;14.00;99.90
25214;DHT22;13160;51.834;4.706;2023-11-19T01:10:38;14.00;99.90
25214;DHT22;13160;51.834;4.706;2023-11-19T01:13:06;14.00;99.90
25214;DHT22;13160;51.834;4.706;2023-11-19T01:15:35;14.00;99.90
25214;DHT22;13160;51.834;4.706;2023-11-19T01:18:04;14.00;99.90
25214;DHT22;13160;51.834;4.706;2023-11-19T01:20:33;14.00;99.90
25214;DHT22;13160;51.834;4.706;2023-11-19T01:23:02;13.90;99.90
25214;DHT22;13160;51.834;4.706;2023-11-19T01:25:31;13.90;99.90
25214;DHT22;13160;51.834;4.706;2023-11-19T01:28:01;13.90;99.90
25214;DHT22;13160;51.834;4.706;2023-11-19T01:30:30;13.90;99.90
25214;DHT22;13160;51.834;4.706;2023-11-19T01:32:58;13.90;99.90
25214;DHT22;13160;51.834;4.706;2023-11-19T01:35:27;13.80;99.90
25214;DHT22;13160;51.834;4.706;2023-11-19T01:37:55;13.80;99.90
25214;DHT22;13160;51.834;4.706;2023-11-19T01:40:23;13.80;99.90
25214;DHT22;13160;51.834;4.706;2023-11-19T01:42:52;13.80;99.90
25214;DHT22;13160;51.834;4.706;2023-11-19T01:45:27;13.70;99.90
25214;DHT22;13160;51.834;4.706;2023-11-19T01:47:59;13.70;99.90
25214;DHT22;13160;51.834;4.706;2023-11-19T01:50:32;13.60;99.90
25214;DHT22;13160;51.834;4.706;2023-11-19T01:53:02;13.60;99.90
25214;DHT22;13160;51.834;4.706;2023-11-19T01:55:30;13.60;99.90
25214;DHT22;13160;51.834;4.706;2023-11-19T01:58:00;13.60;99.90
25214;DHT22;13160;51.834;4.706;2023-11-19T02:00:32;13.60;99.90
25214;DHT22;13160;51.834;4.706;2023-11-19T02:03:01;13.50;99.90
25214;DHT22;13160;51.834;4.706;2023-11-19T02:05:31;13.50;99.90
25214;DHT22;13160;51.834;4.706;2023-11-19T02:08:00;13.50;99.90
25214;DHT22;13160;51.834;4.706;2023-11-19T02:10:30;13.50;99.90
25214;DHT22;13160;51.834;4.706;2023-11-19T02:12:59;13.40;99.90
25214;DHT22;13160;51.834;4.706;2023-11-19T02:15:34;13.40;99.90
25214;DHT22;13160;51.834;4.706;2023-11-19T02:18:19;13.40;99.90
25214;DHT22;13160;51.834;4.706;2023-11-19T02:20:49;13.40;99.90
25214;DHT22;13160;51.834;4.706;2023-11-19T02:23:19;13.30;99.90
25214;DHT22;13160;51.834;4.706;2023-11-19T02:25:56;13.30;99.90
25214;DHT22;13160;51.834;4.706;2023-11-19T02:28:35;13.30;99.90
25214;DHT22;13160;51.834;4.706;2023-11-19T02:31:04;13.30;99.90
25214;DHT22;13160;51.834;4.706;2023-11-19T02:33:37;13.20;99.90
25214;DHT22;13160;51.834;4.706;2023-11-19T02:36:06;13.20;99.90
25214;DHT22;13160;51.834;4.706;2023-11-19T02:38:35;13.20;99.90
25214;DHT22;13160;51.834;4.706;2023-11-19T02:41:04;13.20;99.90
25214;DHT22;13160;51.834;4.706;2023-11-19T02:43:36;13.20;99.90
25214;DHT22;13160;51.834;4.706;2023-11-19T02:46:06;13.20;99.90
25214;DHT22;13160;51.834;4.706;2023-11-19T02:48:38;13.10;99.90
25214;DHT22;13160;51.834;4.706;2023-11-19T02:51:07;13.10;99.90
25214;DHT22;13160;51.834;4.706;2023-11-19T02:53:37;13.10;99.90
25214;DHT22;13160;51.834;4.706;2023-11-19T02:56:07;13.10;99.90
25214;DHT22;13160;51.834;4.706;2023-11-19T02:58:48;13.10;99.90
25214;DHT22;13160;51.834;4.706;2023-11-19T03:01:22;13.00;99.90
25214;DHT22;13160;51.834;4.706;2023-11-19T03:03:58;13.00;99.90
25214;DHT22;13160;51.834;4.706;2023-11-19T03:06:30;13.00;99.90
25214;DHT22;13160;51.834;4.706;2023-11-19T03:08:59;13.00;99.90
25214;DHT22;13160;51.834;4.706;2023-11-19T03:11:32;13.00;99.90
25214;DHT22;13160;51.834;4.706;2023-11-19T03:14:02;12.90;99.90
25214;DHT22;13160;51.834;4.706;2023-11-19T03:16:31;12.90;99.90
25214;DHT22;13160;51.834;4.706;2023-11-19T03:19:00;12.90;99.90
25214;DHT22;13160;51.834;4.706;2023-11-19T03:21:31;12.80;99.90
25214;DHT22;13160;51.834;4.706;2023-11-19T03:24:00;12.80;99.90
25214;DHT22;13160;51.834;4.706;2023-11-19T03:26:28;12.80;99.90
25214;DHT22;13160;51.834;4.706;2023-11-19T03:28:57;12.80;99.90
25214;DHT22;13160;51.834;4.706;2023-11-19T03:31:26;12.80;99.90
25214;DHT22;13160;51.834;4.706;2023-11-19T03:33:55;12.70;99.90
25214;DHT22;13160;51.834;4.706;2023-11-19T03:36:25;12.70;99.90
25214;DHT22;13160;51.834;4.706;2023-11-19T03:39:00;12.70;99.90
25214;DHT22;13160;51.834;4.706;2023-11-19T03:41:30;12.70;99.90
25214;DHT22;13160;51.834;4.706;2023-11-19T03:44:01;12.70;99.90
25214;DHT22;13160;51.834;4.706;2023-11-19T03:46:31;12.70;99.90
25214;DHT22;13160;51.834;4.706;2023-11-19T03:49:00;12.60;99.90
25214;DHT22;13160;51.834;4.706;2023-11-19T03:51:28;12.60;99.90
25214;DHT22;13160;51.834;4.706;2023-11-19T03:53:57;12.60;99.90
25214;DHT22;13160;51.834;4.706;2023-11-19T03:56:26;12.60;99.90
25214;DHT22;13160;51.834;4.706;2023-11-19T03:58:55;12.60;99.90
25214;DHT22;13160;51.834;4.706;2023-11-19T04:01:23;12.60;99.90
25214;DHT22;13160;51.834;4.706;2023-11-19T04:03:53;12.60;99.90
25214;DHT22;13160;51.834;4.706;2023-11-19T04:06:22;12.60;99.90
25214;DHT22;13160;51.834;4.706;2023-11-19T04:08:50;12.50;99.90
25214;DHT22;13160;51.834;4.706;2023-11-19T04:11:18;12.50;99.90
25214;DHT22;13160;51.834;4.706;2023-11-19T04:13:47;12.50;99.90
25214;DHT22;13160;51.834;4.706;2023-11-19T04:16:15;12.50;99.90
25214;DHT22;13160;51.834;4.706;2023-11-19T04:18:43;12.50;99.90
25214;DHT22;13160;51.834;4.706;2023-11-19T04:21:13;12.50;99.90
25214;DHT22;13160;51.834;4.706;2023-11-19T04:23:42;12.50;99.90
25214;DHT22;13160;51.834;4.706;2023-11-19T04:26:10;12.50;99.90
25214;DHT22;13160;51.834;4.706;2023-11-19T04:28:38;12.50;99.90
25214;DHT22;13160;51.834;4.706;2023-11-19T04:31:07;12.50;99.90
25214;DHT22;13160;51.834;4.706;2023-11-19T04:33:36;12.50;99.90
25214;DHT22;13160;51.834;4.706;2023-11-19T04:36:05;12.50;99.90
25214;DHT22;13160;51.834;4.706;2023-11-19T04:38:36;12.40;99.90
25214;DHT22;13160;51.834;4.706;2023-11-19T04:41:05;12.40;99.90
25214;DHT22;13160;51.834;4.706;2023-11-19T04:43:34;12.40;99.90
25214;DHT22;13160;51.834;4.706;2023-11-19T04:46:04;12.40;99.90
25214;DHT22;13160;51.834;4.706;2023-11-19T04:48:34;12.40;99.90
25214;DHT22;13160;51.834;4.706;2023-11-19T04:51:07;12.40;99.90
25214;DHT22;13160;51.834;4.706;2023-11-19T04:53:37;12.40;99.90
25214;DHT22;13160;51.834;4.706;2023-11-19T04:56:09;12.40;99.90
25214;DHT22;13160;51.834;4.706;2023-11-19T04:58:38;12.40;99.90
25214;DHT22;13160;51.834;4.706;2023-11-19T05:01:13;12.40;99.90
25214;DHT22;13160;51.834;4.706;2023-11-19T05:03:43;12.40;99.90
25214;DHT22;13160;51.834;4.706;2023-11-19T05:06:12;12.40;99.90
25214;DHT22;13160;51.834;4.706;2023-11-19T05:08:44;12.40;99.90
25214;DHT22;13160;51.834;4.706;2023-11-19T05:11:12;12.30;99.90
25214;DHT22;13160;51.834;4.706;2023-11-19T05:13:45;12.30;99.90
25214;DHT22;13160;51.834;4.706;2023-11-19T05:16:13;12.30;99.90
25214;DHT22;13160;51.834;4.706;2023-11-19T05:18:42;12.30;99.90
25214;DHT22;13160;51.834;4.706;2023-11-19T05:21:10;12.30;99.90
25214;DHT22;13160;51.834;4.706;2023-11-19T05:23:39;12.30;99.90
25214;DHT22;13160;51.834;4.706;2023-11-19T05:26:16;12.30;99.90
25214;DHT22;13160;51.834;4.706;2023-11-19T05:28:46;12.30;99.90
25214;DHT22;13160;51.834;4.706;2023-11-19T05:31:15;12.30;99.90
25214;DHT22;13160;51.834;4.706;2023-11-19T05:33:45;12.30;99.90
25214;DHT22;13160;51.834;4.706;2023-11-19T05:36:13;12.30;99.90
25214;DHT22;13160;51.834;4.706;2023-11-19T05:38:41;12.30;99.90
25214;DHT22;13160;51.834;4.706;2023-11-19T05:41:12;12.20;99.90
25214;DHT22;13160;51.834;4.706;2023-11-19T05:43:42;12.20;99.90
25214;DHT22;13160;51.834;4.706;2023-11-19T05:46:10;12.20;99.90
25214;DHT22;13160;51.834;4.706;2023-11-19T05:48:43;12.20;99.90
25214;DHT22;13160;51.834;4.706;2023-11-19T05:51:13;12.20;99.90
25214;DHT22;13160;51.834;4.706;2023-11-19T05:53:43;12.20;99.90
25214;DHT22;13160;51.834;4.706;2023-11-19T05:56:14;12.20;99.90
25214;DHT22;13160;51.834;4.706;2023-11-19T05:58:48;12.20;99.90
25214;DHT22;13160;51.834;4.706;2023-11-19T06:01:17;12.20;99.90
25214;DHT22;13160;51.834;4.706;2023-11-19T06:03:45;12.20;99.90
25214;DHT22;13160;51.834;4.706;2023-11-19T06:06:17;12.20;99.90
25214;DHT22;13160;51.834;4.706;2023-11-19T06:08:46;12.20;99.90
25214;DHT22;13160;51.834;4.706;2023-11-19T06:11:16;12.20;99.90
25214;DHT22;13160;51.834;4.706;2023-11-19T06:13:47;12.20;99.90
25214;DHT22;13160;51.834;4.706;2023-11-19T06:16:18;12.10;99.90
25214;DHT22;13160;51.834;4.706;2023-11-19T06:18:46;12.20;99.90
25214;DHT22;13160;51.834;4.706;2023-11-19T06:21:15;12.10;99.90
25214;DHT22;13160;51.834;4.706;2023-11-19T06:23:43;12.10;99.90
25214;DHT22;13160;51.834;4.706;2023-11-19T06:26:11;12.10;99.90
25214;DHT22;13160;51.834;4.706;2023-11-19T06:28:42;12.10;99.90
25214;DHT22;13160;51.834;4.706;2023-11-19T06:31:11;12.10;99.90
25214;DHT22;13160;51.834;4.706;2023-11-19T06:33:43;12.10;99.90
25214;DHT22;13160;51.834;4.706;2023-11-19T06:36:14;12.10;99.90
25214;DHT22;13160;51.834;4.706;2023-11-19T06:38:43;12.10;99.90
25214;DHT22;13160;51.834;4.706;2023-11-19T06:41:12;12.10;99.90
25214;DHT22;13160;51.834;4.706;2023-11-19T06:43:42;12.10;99.90
25214;DHT22;13160;51.834;4.706;2023-11-19T06:46:16;12.00;99.90
25214;DHT22;13160;51.834;4.706;2023-11-19T06:48:45;12.00;99.90
25214;DHT22;13160;51.834;4.706;2023-11-19T06:51:15;12.00;99.90
25214;DHT22;13160;51.834;4.706;2023-11-19T06:53:43;12.00;99.90
25214;DHT22;13160;51.834;4.706;2023-11-19T06:56:20;12.00;99.90
25214;DHT22;13160;51.834;4.706;2023-11-19T06:58:51;12.00;99.90
25214;DHT22;13160;51.834;4.706;2023-11-19T07:01:20;12.00;99.90
25214;DHT22;13160;51.834;4.706;2023-11-19T07:03:48;12.00;99.90
25214;DHT22;13160;51.834;4.706;2023-11-19T07:06:18;12.00;99.90
25214;DHT22;13160;51.834;4.706;2023-11-19T07:09:01;12.10;99.90
25214;DHT22;13160;51.834;4.706;2023-11-19T07:11:37;12.00;99.90
25214;DHT22;13160;51.834;4.706;2023-11-19T07:14:08;12.00;99.90
25214;DHT22;13160;51.834;4.706;2023-11-19T07:16:36;12.00;99.90
25214;DHT22;13160;51.834;4.706;2023-11-19T07:19:06;12.00;99.90
25214;DHT22;13160;51.834;4.706;2023-11-19T07:21:34;12.00;99.90
25214;DHT22;13160;51.834;4.706;2023-11-19T07:24:06;12.00;99.90
25214;DHT22;13160;51.834;4.706;2023-11-19T07:26:36;12.00;99.90
25214;DHT22;13160;51.834;4.706;2023-11-19T07:29:09;12.00;99.90
25214;DHT22;13160;51.834;4.706;2023-11-19T07:31:37;12.00;99.90
25214;DHT22;13160;51.834;4.706;2023-11-19T07:34:06;12.00;99.90
25214;DHT22;13160;51.834;4.706;2023-11-19T07:36:36;12.00;99.90
25214;DHT22;13160;51.834;4.706;2023-11-19T07:39:04;12.00;99.90
25214;DHT22;13160;51.834;4.706;2023-11-19T07:41:33;12.00;99.90
25214;DHT22;13160;51.834;4.706;2023-11-19T07:44:02;12.00;99.90
25214;DHT22;13160;51.834;4.706;2023-11-19T07:46:32;12.00;99.90
25214;DHT22;13160;51.834;4.706;2023-11-19T07:49:00;12.00;99.90
25214;DHT22;13160;51.834;4.706;2023-11-19T07:51:30;12.00;99.90
25214;DHT22;13160;51.834;4.706;2023-11-19T07:53:58;12.00;99.90
25214;DHT22;13160;51.834;4.706;2023-11-19T07:56:27;12.00;99.90
25214;DHT22;13160;51.834;4.706;2023-11-19T07:58:55;12.00;99.90
25214;DHT22;13160;51.834;4.706;2023-11-19T08:01:24;12.10;99.90
25214;DHT22;13160;51.834;4.706;2023-11-19T08:03:54;12.10;99.90
25214;DHT22;13160;51.834;4.706;2023-11-19T08:06:25;12.10;99.90
25214;DHT22;13160;51.834;4.706;2023-11-19T08:08:55;12.10;99.90
25214;DHT22;13160;51.834;4.706;2023-11-19T08:11:23;12.10;99.90
25214;DHT22;13160;51.834;4.706;2023-11-19T08:13:52;12.10;99.90
25214;DHT22;13160;51.834;4.706;2023-11-19T08:16:20;12.10;99.90
25214;DHT22;13160;51.834;4.706;2023-11-19T08:18:53;12.20;99.90
25214;DHT22;13160;51.834;4.706;2023-11-19T08:21:21;12.20;99.90
25214;DHT22;13160;51.834;4.706;2023-11-19T08:23:50;12.20;99.90
25214;DHT22;13160;51.834;4.706;2023-11-19T08:26:19;12.20;99.90
25214;DHT22;13160;51.834;4.706;2023-11-19T08:28:48;12.30;99.90
25214;DHT22;13160;51.834;4.706;2023-11-19T08:31:21;12.30;99.90
25214;DHT22;13160;51.834;4.706;2023-11-19T08:33:56;12.30;99.90
25214;DHT22;13160;51.834;4.706;2023-11-19T08:36:24;12.30;99.90
25214;DHT22;13160;51.834;4.706;2023-11-19T08:38:54;12.30;99.90
25214;DHT22;13160;51.834;4.706;2023-11-19T08:41:23;12.30;99.90
25214;DHT22;13160;51.834;4.706;2023-11-19T08:43:52;12.30;99.90
25214;DHT22;13160;51.834;4.706;2023-11-19T08:46:21;12.40;99.90
25214;DHT22;13160;51.834;4.706;2023-11-19T08:48:49;12.40;99.90
25214;DHT22;13160;51.834;4.706;2023-11-19T08:51:19;12.40;99.90
25214;DHT22;13160;51.834;4.706;2023-11-19T08:53:48;12.40;99.90
25214;DHT22;13160;51.834;4.706;2023-11-19T08:56:16;12.40;99.90
25214;DHT22;13160;51.834;4.706;2023-11-19T08:58:45;12.40;99.90
25214;DHT22;13160;51.834;4.706;2023-11-19T09:01:13;12.50;99.90
25214;DHT22;13160;51.834;4.706;2023-11-19T09:03:41;12.50;99.90
25214;DHT22;13160;51.834;4.706;2023-11-19T09:06:10;12.50;99.90
25214;DHT22;13160;51.834;4.706;2023-11-19T09:08:41;12.50;99.90
25214;DHT22;13160;51.834;4.706;2023-11-19T09:11:10;12.50;99.90
25214;DHT22;13160;51.834;4.706;2023-11-19T09:13:38;12.50;99.90
25214;DHT22;13160;51.834;4.706;2023-11-19T09:16:07;12.60;99.90
25214;DHT22;13160;51.834;4.706;2023-11-19T09:18:36;12.60;99.90
25214;DHT22;13160;51.834;4.706;2023-11-19T09:21:05;12.60;99.90
25214;DHT22;13160;51.834;4.706;2023-11-19T09:23:34;12.70;99.90
25214;DHT22;13160;51.834;4.706;2023-11-19T09:26:08;12.70;99.90
25214;DHT22;13160;51.834;4.706;2023-11-19T09:28:38;12.80;99.90
25214;DHT22;13160;51.834;4.706;2023-11-19T09:31:13;12.80;99.90
25214;DHT22;13160;51.834;4.706;2023-11-19T09:33:45;12.80;99.90
25214;DHT22;13160;51.834;4.706;2023-11-19T09:36:13;12.90;99.90
25214;DHT22;13160;51.834;4.706;2023-11-19T09:38:44;12.90;99.90
25214;DHT22;13160;51.834;4.706;2023-11-19T09:41:14;12.90;99.90
25214;DHT22;13160;51.834;4.706;2023-11-19T09:43:43;12.90;99.90
25214;DHT22;13160;51.834;4.706;2023-11-19T09:46:13;13.00;99.90
25214;DHT22;13160;51.834;4.706;2023-11-19T09:48:44;13.00;99.90
25214;DHT22;13160;51.834;4.706;2023-11-19T09:51:12;13.00;99.90
25214;DHT22;13160;51.834;4.706;2023-11-19T09:53:41;13.10;99.90
25214;DHT22;13160;51.834;4.706;2023-11-19T09:56:09;13.10;99.90
25214;DHT22;13160;51.834;4.706;2023-11-19T09:58:41;13.10;99.90
25214;DHT22;13160;51.834;4.706;2023-11-19T10:01:10;13.10;99.90
25214;DHT22;13160;51.834;4.706;2023-11-19T10:03:42;13.10;99.90
25214;DHT22;13160;51.834;4.706;2023-11-19T10:06:11;13.10;99.90
25214;DHT22;13160;51.834;4.706;2023-11-19T10:08:42;13.20;99.90
25214;DHT22;13160;51.834;4.706;2023-11-19T10:11:12;13.20;99.90
25214;DHT22;13160;51.834;4.706;2023-11-19T10:13:42;13.30;99.90
25214;DHT22;13160;51.834;4.706;2023-11-19T10:16:12;13.40;99.90
25214;DHT22;13160;51.834;4.706;2023-11-19T10:18:44;13.40;99.90
25214;DHT22;13160;51.834;4.706;2023-11-19T10:21:13;13.50;99.90
25214;DHT22;13160;51.834;4.706;2023-11-19T10:23:53;13.60;99.90
25214;DHT22;13160;51.834;4.706;2023-11-19T10:26:26;13.60;99.90
25214;DHT22;13160;51.834;4.706;2023-11-19T10:28:56;13.70;99.90
25214;DHT22;13160;51.834;4.706;2023-11-19T10:31:24;13.70;99.90
25214;DHT22;13160;51.834;4.706;2023-11-19T10:33:53;13.80;99.90
25214;DHT22;13160;51.834;4.706;2023-11-19T10:36:37;13.80;99.90
25214;DHT22;13160;51.834;4.706;2023-11-19T10:39:07;13.80;99.90
25214;DHT22;13160;51.834;4.706;2023-11-19T10:41:38;13.80;99.90
25214;DHT22;13160;51.834;4.706;2023-11-19T10:44:07;13.80;99.90
25214;DHT22;13160;51.834;4.706;2023-11-19T10:46:40;13.90;99.90
25214;DHT22;13160;51.834;4.706;2023-11-19T10:49:10;13.90;99.90
25214;DHT22;13160;51.834;4.706;2023-11-19T10:51:44;14.00;99.90
25214;DHT22;13160;51.834;4.706;2023-11-19T10:54:16;14.00;99.90
25214;DHT22;13160;51.834;4.706;2023-11-19T10:56:55;14.10;99.90
25214;DHT22;13160;51.834;4.706;2023-11-19T10:59:31;14.10;99.90
25214;DHT22;13160;51.834;4.706;2023-11-19T11:02:03;14.20;99.90
25214;DHT22;13160;51.834;4.706;2023-11-19T11:04:33;14.20;99.90
25214;DHT22;13160;51.834;4.706;2023-11-19T11:07:09;14.20;99.90
25214;DHT22;13160;51.834;4.706;2023-11-19T11:09:38;14.20;99.90
25214;DHT22;13160;51.834;4.706;2023-11-19T11:12:09;14.20;99.90
25214;DHT22;13160;51.834;4.706;2023-11-19T11:14:38;14.20;99.90
25214;DHT22;13160;51.834;4.706;2023-11-19T11:17:09;14.20;99.90
25214;DHT22;13160;51.834;4.706;2023-11-19T11:19:42;14.20;99.90
25214;DHT22;13160;51.834;4.706;2023-11-19T11:22:11;14.20;99.90
25214;DHT22;13160;51.834;4.706;2023-11-19T11:25:13;14.20;99.90
25214;DHT22;13160;51.834;4.706;2023-11-19T11:28:18;14.20;99.90
25214;DHT22;13160;51.834;4.706;2023-11-19T11:31:13;14.10;99.90
25214;DHT22;13160;51.834;4.706;2023-11-19T11:34:14;14.10;99.90
25214;DHT22;13160;51.834;4.706;2023-11-19T11:37:06;14.10;99.90
25214;DHT22;13160;51.834;4.706;2023-11-19T11:39:40;14.10;99.90
25214;DHT22;13160;51.834;4.706;2023-11-19T11:42:31;14.10;99.90
25214;DHT22;13160;51.834;4.706;2023-11-19T11:45:05;14.10;99.90
25214;DHT22;13160;51.834;4.706;2023-11-19T11:50:53;14.10;99.90
25214;DHT22;13160;51.834;4.706;2023-11-19T11:53:23;14.10;99.90
25214;DHT22;13160;51.834;4.706;2023-11-19T11:55:56;14.20;99.90
25214;DHT22;13160;51.834;4.706;2023-11-19T11:58:32;14.20;99.90
25214;DHT22;13160;51.834;4.706;2023-11-19T12:01:06;14.20;99.90
25214;DHT22;13160;51.834;4.706;2023-11-19T12:03:35;14.20;99.90
25214;DHT22;13160;51.834;4.706;2023-11-19T12:06:06;14.20;99.90
25214;DHT22;13160;51.834;4.706;2023-11-19T12:08:35;14.20;99.90
25214;DHT22;13160;51.834;4.706;2023-11-19T12:11:06;14.30;99.90
25214;DHT22;13160;51.834;4.706;2023-11-19T12:14:03;14.30;99.90
25214;DHT22;13160;51.834;4.706;2023-11-19T12:16:34;14.30;99.90
25214;DHT22;13160;51.834;4.706;2023-11-19T12:19:05;14.30;99.90
25214;DHT22;13160;51.834;4.706;2023-11-19T12:21:34;14.30;99.90
25214;DHT22;13160;51.834;4.706;2023-11-19T12:24:06;14.30;99.90
25214;DHT22;13160;51.834;4.706;2023-11-19T12:26:37;14.30;99.90
25214;DHT22;13160;51.834;4.706;2023-11-19T12:29:06;14.30;99.90
25214;DHT22;13160;51.834;4.706;2023-11-19T12:31:37;14.30;99.90
25214;DHT22;13160;51.834;4.706;2023-11-19T12:34:09;14.30;99.90
25214;DHT22;13160;51.834;4.706;2023-11-19T12:36:41;14.30;99.90
25214;DHT22;13160;51.834;4.706;2023-11-19T12:39:10;14.30;99.90
25214;DHT22;13160;51.834;4.706;2023-11-19T12:41:52;14.30;99.90
25214;DHT22;13160;51.834;4.706;2023-11-19T12:44:22;14.30;99.90
25214;DHT22;13160;51.834;4.706;2023-11-19T12:47:04;14.30;99.90
25214;DHT22;13160;51.834;4.706;2023-11-19T12:49:34;14.40;99.90
25214;DHT22;13160;51.834;4.706;2023-11-19T12:52:11;14.40;99.90
25214;DHT22;13160;51.834;4.706;2023-11-19T12:54:40;14.40;99.90
25214;DHT22;13160;51.834;4.706;2023-11-19T12:57:09;14.40;99.90
25214;DHT22;13160;51.834;4.706;2023-11-19T12:59:37;14.40;99.90
25214;DHT22;13160;51.834;4.706;2023-11-19T13:02:07;14.50;99.90
25214;DHT22;13160;51.834;4.706;2023-11-19T13:04:35;14.50;99.90
25214;DHT22;13160;51.834;4.706;2023-11-19T13:07:04;14.50;99.90
25214;DHT22;13160;51.834;4.706;2023-11-19T13:09:33;14.50;99.90
25214;DHT22;13160;51.834;4.706;2023-11-19T13:12:12;14.50;99.90
25214;DHT22;13160;51.834;4.706;2023-11-19T13:14:42;14.50;99.90
25214;DHT22;13160;51.834;4.706;2023-11-19T13:17:17;14.50;99.90
25214;DHT22;13160;51.834;4.706;2023-11-19T13:19:47;14.50;99.90
25214;DHT22;13160;51.834;4.706;2023-11-19T13:22:17;14.50;99.90
25214;DHT22;13160;51.834;4.706;2023-11-19T13:24:46;14.50;99.90
25214;DHT22;13160;51.834;4.706;2023-11-19T13:27:15;14.50;99.90
25214;DHT22;13160;51.834;4.706;2023-11-19T13:29:43;14.50;99.90
25214;DHT22;13160;51.834;4.706;2023-11-19T13:32:16;14.60;99.90
25214;DHT22;13160;51.834;4.706;2023-11-19T13:34:45;14.50;99.90
25214;DHT22;13160;51.834;4.706;2023-11-19T13:37:14;14.50;99.90
25214;DHT22;13160;51.834;4.706;2023-11-19T13:39:42;14.50;99.90
25214;DHT22;13160;51.834;4.706;2023-11-19T13:42:11;14.50;99.90
25214;DHT22;13160;51.834;4.706;2023-11-19T13:44:40;14.50;99.90
25214;DHT22;13160;51.834;4.706;2023-11-19T13:47:09;14.40;99.90
25214;DHT22;13160;51.834;4.706;2023-11-19T13:49:41;14.40;99.90
25214;DHT22;13160;51.834;4.706;2023-11-19T13:52:12;14.40;99.90
25214;DHT22;13160;51.834;4.706;2023-11-19T13:54:43;14.40;99.90
25214;DHT22;13160;51.834;4.706;2023-11-19T13:57:14;14.40;99.90
25214;DHT22;13160;51.834;4.706;2023-11-19T13:59:43;14.40;99.90
25214;DHT22;13160;51.834;4.706;2023-11-19T14:02:12;14.40;99.90
25214;DHT22;13160;51.834;4.706;2023-11-19T14:04:54;14.40;99.90
25214;DHT22;13160;51.834;4.706;2023-11-19T14:07:48;14.40;99.90
25214;DHT22;13160;51.834;4.706;2023-11-19T14:10:32;14.30;99.90
25214;DHT22;13160;51.834;4.706;2023-11-19T14:13:01;14.30;99.90
25214;DHT22;13160;51.834;4.706;2023-11-19T14:15:30;14.30;99.90
25214;DHT22;13160;51.834;4.706;2023-11-19T14:18:02;14.30;99.90
25214;DHT22;13160;51.834;4.706;2023-11-19T14:20:32;14.30;99.90
25214;DHT22;13160;51.834;4.706;2023-11-19T14:23:02;14.20;99.90
25214;DHT22;13160;51.834;4.706;2023-11-19T14:25:34;14.20;99.90
25214;DHT22;13160;51.834;4.706;2023-11-19T14:28:03;14.20;99.90
25214;DHT22;13160;51.834;4.706;2023-11-19T14:30:33;14.20;99.90
25214;DHT22;13160;51.834;4.706;2023-11-19T14:33:05;14.20;99.90
25214;DHT22;13160;51.834;4.706;2023-11-19T14:35:36;14.20;99.90
25214;DHT22;13160;51.834;4.706;2023-11-19T14:38:04;14.20;99.90
25214;DHT22;13160;51.834;4.706;2023-11-19T14:40:36;14.20;99.90
25214;DHT22;13160;51.834;4.706;2023-11-19T14:43:08;14.20;99.90
25214;DHT22;13160;51.834;4.706;2023-11-19T14:45:37;14.20;99.90
25214;DHT22;13160;51.834;4.706;2023-11-19T14:48:15;14.20;99.90
25214;DHT22;13160;51.834;4.706;2023-11-19T14:50:46;14.20;99.90
25214;DHT22;13160;51.834;4.706;2023-11-19T14:53:14;14.20;99.90
25214;DHT22;13160;51.834;4.706;2023-11-19T14:55:43;14.20;99.90
25214;DHT22;13160;51.834;4.706;2023-11-19T14:58:11;14.20;99.90
25214;DHT22;13160;51.834;4.706;2023-11-19T15:00:43;14.20;99.90
25214;DHT22;13160;51.834;4.706;2023-11-19T15:03:13;14.20;99.90
25214;DHT22;13160;51.834;4.706;2023-11-19T15:05:43;14.10;99.90
25214;DHT22;13160;51.834;4.706;2023-11-19T15:08:14;14.10;99.90
25214;DHT22;13160;51.834;4.706;2023-11-19T15:10:43;14.10;99.90
25214;DHT22;13160;51.834;4.706;2023-11-19T15:13:13;14.10;99.90
25214;DHT22;13160;51.834;4.706;2023-11-19T15:15:42;14.10;99.90
25214;DHT22;13160;51.834;4.706;2023-11-19T15:18:11;14.10;99.90
25214;DHT22;13160;51.834;4.706;2023-11-19T15:20:40;14.10;99.90
25214;DHT22;13160;51.834;4.706;2023-11-19T15:23:08;14.00;99.90
25214;DHT22;13160;51.834;4.706;2023-11-19T15:25:38;14.10;99.90
25214;DHT22;13160;51.834;4.706;2023-11-19T15:28:08;14.10;99.90
25214;DHT22;13160;51.834;4.706;2023-11-19T15:30:37;14.10;99.90
25214;DHT22;13160;51.834;4.706;2023-11-19T15:33:06;14.00;99.90
25214;DHT22;13160;51.834;4.706;2023-11-19T15:35:35;14.00;99.90
25214;DHT22;13160;51.834;4.706;2023-11-19T15:38:04;14.00;99.90
25214;DHT22;13160;51.834;4.706;2023-11-19T15:40:35;14.00;99.90
25214;DHT22;13160;51.834;4.706;2023-11-19T15:43:05;13.90;99.90
25214;DHT22;13160;51.834;4.706;2023-11-19T15:45:34;13.90;99.90
25214;DHT22;13160;51.834;4.706;2023-11-19T15:48:05;13.90;99.90
25214;DHT22;13160;51.834;4.706;2023-11-19T15:50:34;13.80;99.90
25214;DHT22;13160;51.834;4.706;2023-11-19T15:53:02;13.80;99.90
25214;DHT22;13160;51.834;4.706;2023-11-19T15:55:31;13.80;99.90